Time;durP1;ratioP1;P1;durP2;ratioP2;P2;SDS_P1;SDS_P2;PMS_P1;PMS_P2;Temp;Humidity;BMP_temperature;BMP_pressure;BME280_temperature;BME280_humidity;BME280_pressure;Samples;Min_cycle;Max_cycle;Signal;HPM_P1;HPM_P2
2022/01/09 00:00:35;;;;;;;15.75;7.35;;;;;;;-2.03;69.64;99416.23;1752291;81;21062;-65
2022/01/09 00:03:04;;;;;;;15.88;6.72;;;;;;;-2.05;69.67;99407.53;1711379;81;21512;-68
2022/01/09 00:05:30;;;;;;;13.78;6.12;;;;;;;-2.08;69.49;99409.64;1755219;81;20936;-67
2022/01/09 00:07:57;;;;;;;11.70;6.20;;;;;;;-2.10;69.74;99404.20;1710066;81;21492;-66
2022/01/09 00:10:23;;;;;;;17.67;7.08;;;;;;;-2.09;69.57;99399.09;1740745;81;21115;-64
2022/01/09 00:12:50;;;;;;;15.03;6.62;;;;;;;-2.11;69.65;99403.38;1746659;81;20884;-65
2022/01/09 00:15:16;;;;;;;12.03;6.42;;;;;;;-2.15;69.43;99399.50;1755068;81;20964;-66
2022/01/09 00:17:42;;;;;;;13.35;6.40;;;;;;;-2.18;69.46;99399.18;1748020;81;21489;-65
2022/01/09 00:20:10;;;;;;;12.90;6.33;;;;;;;-2.15;69.64;99389.25;1745959;81;20915;-65
2022/01/09 00:22:48;;;;;;;12.10;5.92;;;;;;;-2.13;69.66;99385.78;1736869;81;21126;-66
2022/01/09 00:25:16;;;;;;;11.33;5.55;;;;;;;-2.13;69.61;99382.53;1710149;81;21047;-65
2022/01/09 00:27:43;;;;;;;12.88;6.10;;;;;;;-2.13;69.80;99381.19;1738567;81;21075;-66
2022/01/09 00:30:13;;;;;;;15.23;6.10;;;;;;;-2.09;69.79;99378.31;1717937;81;21013;-66
2022/01/09 00:32:40;;;;;;;15.32;6.22;;;;;;;-2.06;69.67;99368.09;1717854;81;20992;-66
2022/01/09 00:35:08;;;;;;;18.30;7.12;;;;;;;-2.07;69.85;99379.42;1729167;82;22288;-65
2022/01/09 00:37:36;;;;;;;14.98;7.15;;;;;;;-2.04;69.85;99377.59;1726414;81;21004;-66
2022/01/09 00:40:05;;;;;;;14.85;7.03;;;;;;;-2.03;69.77;99375.16;1726127;81;21170;-66
2022/01/09 00:42:31;;;;;;;20.75;7.58;;;;;;;-2.05;69.66;99374.61;1738040;81;21067;-67
2022/01/09 00:45:01;;;;;;;18.17;8.18;;;;;;;-2.05;69.61;99369.20;1724115;81;21000;-65
2022/01/09 00:47:28;;;;;;;16.17;7.28;;;;;;;-2.03;69.67;99376.52;1727816;81;21131;-67
2022/01/09 00:49:54;;;;;;;13.70;5.90;;;;;;;-2.04;69.64;99365.95;1734615;81;21138;-66
2022/01/09 00:52:21;;;;;;;13.35;7.28;;;;;;;-2.06;69.75;99362.14;1725268;81;21004;-66
2022/01/09 00:54:47;;;;;;;16.10;7.60;;;;;;;-2.06;69.86;99365.39;1725233;81;20901;-66
2022/01/09 00:57:13;;;;;;;17.30;7.00;;;;;;;-2.09;69.89;99357.23;1729123;81;21146;-67
2022/01/09 00:59:41;;;;;;;12.10;6.17;;;;;;;-2.11;69.90;99350.72;1748420;81;21107;-67
2022/01/09 01:02:08;;;;;;;15.25;6.78;;;;;;;-2.12;70.15;99351.79;1723990;81;20925;-65
2022/01/09 01:04:38;;;;;;;13.50;7.80;;;;;;;-2.11;70.17;99341.78;1731790;81;20897;-67
2022/01/09 01:07:04;;;;;;;14.00;6.37;;;;;;;-2.11;70.16;99341.78;1721075;81;21099;-65
2022/01/09 01:09:31;;;;;;;13.70;6.45;;;;;;;-2.10;70.45;99335.34;1739864;81;21053;-66
2022/01/09 01:11:59;;;;;;;16.65;7.40;;;;;;;-2.10;70.50;99334.00;1721885;81;20960;-65
2022/01/09 01:14:31;;;;;;;18.35;7.50;;;;;;;-2.13;70.66;99329.87;1732181;81;21560;-67
2022/01/09 01:16:58;;;;;;;16.65;7.50;;;;;;;-2.17;71.10;99323.34;1733906;81;21548;-66
2022/01/09 01:19:25;;;;;;;16.90;6.90;;;;;;;-2.22;71.30;99315.93;1750867;81;21095;-66
2022/01/09 01:21:53;;;;;;;13.50;7.10;;;;;;;-2.23;71.57;99310.25;1731443;81;21095;-66
2022/01/09 01:24:21;;;;;;;16.77;7.75;;;;;;;-2.27;71.84;99296.94;1731304;81;21877;-66
2022/01/09 01:26:48;;;;;;;15.08;7.53;;;;;;;-2.29;71.99;99293.67;1730842;81;21126;-63
2022/01/09 01:29:18;;;;;;;15.25;6.12;;;;;;;-2.27;72.36;99292.09;1745403;81;21017;-66
2022/01/09 01:31:44;;;;;;;15.23;7.03;;;;;;;-2.29;72.54;99290.15;1692137;81;20986;-66
2022/01/09 01:34:12;;;;;;;16.45;6.72;;;;;;;-2.30;72.87;99289.32;1711044;81;21036;-66
2022/01/09 01:36:39;;;;;;;13.15;6.17;;;;;;;-2.32;73.19;99283.36;1721185;81;21118;-66
2022/01/09 01:39:06;;;;;;;14.10;6.67;;;;;;;-2.31;73.12;99275.55;1737133;81;21150;-67
2022/01/09 01:41:32;;;;;;;15.80;5.85;;;;;;;-2.35;73.33;99281.12;1732031;81;21119;-66
2022/01/09 01:43:58;;;;;;;11.70;5.95;;;;;;;-2.39;73.89;99278.63;1738365;81;21557;-66
2022/01/09 01:46:24;;;;;;;13.22;6.25;;;;;;;-2.47;74.71;99273.89;1743698;81;20992;-66
2022/01/09 01:48:51;;;;;;;15.98;5.95;;;;;;;-2.50;75.19;99267.63;1722130;81;21796;-66
2022/01/09 01:51:20;;;;;;;11.78;6.37;;;;;;;-2.52;76.87;99263.52;1723658;81;20981;-66
2022/01/09 01:53:49;;;;;;;10.35;5.80;;;;;;;-2.59;76.90;99260.43;1727186;81;21048;-66
2022/01/09 01:56:19;;;;;;;18.77;6.75;;;;;;;-2.60;76.67;99257.97;1739629;80;21138;-65
2022/01/09 01:58:43;;;;;;;17.40;7.92;;;;;;;-2.63;77.66;99255.76;1729978;81;21453;-67
2022/01/09 02:01:09;;;;;;;14.75;6.08;;;;;;;-2.68;78.03;99249.73;1737165;81;21093;-67
2022/01/09 02:03:38;;;;;;;17.25;6.60;;;;;;;-2.69;78.13;99243.52;1731362;81;20913;-65
2022/01/09 02:06:04;;;;;;;15.65;6.55;;;;;;;-2.67;78.05;99238.39;1743880;81;21084;-66
2022/01/09 02:08:32;;;;;;;14.75;8.20;;;;;;;-2.65;78.29;99236.28;1738141;81;20987;-66
2022/01/09 02:10:58;;;;;;;14.63;6.35;;;;;;;-2.67;78.36;99228.44;1737343;81;21063;-66
2022/01/09 02:13:26;;;;;;;21.17;6.62;;;;;;;-2.66;78.52;99215.22;1733845;81;21841;-66
2022/01/09 02:15:57;;;;;;;16.23;7.08;;;;;;;-2.65;78.87;99212.83;1724907;81;20984;-66
2022/01/09 02:18:21;;;;;;;13.75;6.42;;;;;;;-2.63;78.83;99205.33;1708919;82;21064;-66
2022/01/09 02:20:49;;;;;;;14.30;6.40;;;;;;;-2.60;78.94;99208.89;1742294;81;20975;-66
2022/01/09 02:23:16;;;;;;;14.63;6.83;;;;;;;-2.55;79.05;99202.77;1741371;81;21444;-66
2022/01/09 02:25:44;;;;;;;16.17;7.03;;;;;;;-2.54;79.07;99197.64;1750998;81;21200;-66
2022/01/09 02:28:12;;;;;;;16.55;7.33;;;;;;;-2.54;79.17;99188.75;1726488;81;20949;-66
2022/01/09 02:30:39;;;;;;;25.43;7.40;;;;;;;-2.53;79.21;99186.33;1756958;80;21051;-66
2022/01/09 02:33:08;;;;;;;18.32;6.60;;;;;;;-2.52;79.40;99182.55;1752552;81;21111;-66
2022/01/09 02:35:34;;;;;;;17.52;6.97;;;;;;;-2.51;79.43;99185.56;1746635;81;20924;-66
2022/01/09 02:38:06;;;;;;;16.40;7.67;;;;;;;-2.50;79.72;99182.62;1723350;82;23033;-63
2022/01/09 02:40:33;;;;;;;22.62;8.58;;;;;;;-2.52;79.70;99179.86;1731728;82;20945;-64
2022/01/09 02:42:59;;;;;;;15.70;7.33;;;;;;;-2.55;79.96;99177.13;1727476;81;20993;-67
2022/01/09 02:45:27;;;;;;;18.35;8.40;;;;;;;-2.60;80.03;99181.91;1703891;82;21012;-67
2022/01/09 02:47:55;;;;;;;19.77;7.70;;;;;;;-2.60;80.19;99172.98;1734306;81;20972;-63
2022/01/09 02:52:59;;;;;;;18.17;8.70;;;;;;;-2.69;80.80;99173.37;1744385;81;21111;-65
2022/01/09 02:55:21;;;;;;;22.55;8.78;;;;;;;-2.72;81.12;99169.81;1714682;82;21390;-66
2022/01/09 02:57:54;;;;;;;15.23;7.65;;;;;;;-2.72;81.20;99169.81;1718056;82;21060;-65
2022/01/09 03:00:32;;;;;;;21.35;7.58;;;;;;;-2.70;81.27;99162.30;1729468;81;25834;-66
2022/01/09 03:02:58;;;;;;;17.92;8.40;;;;;;;-2.67;81.30;99156.11;1693733;82;21019;-66
2022/01/09 03:05:26;;;;;;;23.25;8.63;;;;;;;-2.72;81.31;99154.97;1724716;81;21094;-67
2022/01/09 03:07:52;;;;;;;22.00;9.48;;;;;;;-2.74;81.52;99149.52;1733955;81;21107;-65
2022/01/09 03:10:20;;;;;;;19.25;8.45;;;;;;;-2.71;81.74;99154.42;1723541;81;20976;-66
2022/01/09 03:12:48;;;;;;;30.05;9.25;;;;;;;-2.74;81.81;99144.95;1733091;81;20893;-63
2022/01/09 03:15:15;;;;;;;20.05;9.18;;;;;;;-2.79;81.74;99141.32;1718976;81;21929;-66
2022/01/09 03:17:41;;;;;;;18.32;8.80;;;;;;;-2.78;82.07;99141.63;1697259;82;20916;-66
2022/01/09 03:20:12;;;;;;;21.87;10.05;;;;;;;-2.77;82.14;99135.98;1724256;82;21178;-65
2022/01/09 03:22:39;;;;;;;23.67;8.90;;;;;;;-2.72;82.27;99136.09;1699595;82;21007;-65
2022/01/09 03:25:07;;;;;;;21.00;10.10;;;;;;;-2.67;82.21;99133.18;1747259;80;21420;-65
2022/01/09 03:27:34;;;;;;;25.35;10.68;;;;;;;-2.66;82.20;99132.14;1733425;81;21182;-65
2022/01/09 03:30:01;;;;;;;30.40;10.18;;;;;;;-2.68;82.17;99128.34;1709548;83;21020;-65
2022/01/09 03:32:27;;;;;;;24.45;9.98;;;;;;;-2.73;82.19;99121.49;1726938;81;21048;-65
2022/01/09 03:34:54;;;;;;;22.00;10.38;;;;;;;-2.74;82.25;99120.66;1732475;81;20981;-65
2022/01/09 03:37:20;;;;;;;16.02;8.58;;;;;;;-2.78;82.19;99119.50;1708568;82;21072;-66
2022/01/09 03:39:47;;;;;;;23.75;9.60;;;;;;;-2.83;82.43;99115.36;1739112;81;21080;-64
2022/01/09 03:42:14;;;;;;;21.15;8.98;;;;;;;-2.82;82.73;99116.48;1759893;80;20912;-66
2022/01/09 03:44:41;;;;;;;23.02;8.90;;;;;;;-2.79;82.89;99115.17;1713515;82;21064;-67
2022/01/09 03:47:07;;;;;;;21.50;9.13;;;;;;;-2.81;82.79;99103.80;1738162;81;21528;-66
2022/01/09 03:49:34;;;;;;;22.48;10.23;;;;;;;-2.84;82.96;99110.52;1738787;81;21023;-67
2022/01/09 03:52:01;;;;;;;21.37;8.43;;;;;;;-2.84;83.12;99108.33;1747284;81;21118;-65
2022/01/09 03:54:27;;;;;;;20.97;9.63;;;;;;;-2.78;83.30;99105.22;1739962;81;21513;-66
2022/01/09 03:56:53;;;;;;;22.32;9.10;;;;;;;-2.79;83.08;99098.99;1749592;81;21052;-67
2022/01/09 03:59:22;;;;;;;20.82;10.00;;;;;;;-2.84;83.14;99102.42;1745900;81;21103;-68
2022/01/09 04:01:48;;;;;;;21.73;9.98;;;;;;;-2.86;83.35;99095.09;1730767;81;21702;-67
2022/01/09 04:04:15;;;;;;;24.37;9.90;;;;;;;-2.82;83.68;99099.48;1703778;82;21089;-67
2022/01/09 04:06:46;;;;;;;24.30;9.68;;;;;;;-2.76;83.69;99101.75;1722265;81;21052;-66
2022/01/09 04:09:17;;;;;;;23.02;10.18;;;;;;;-2.73;83.70;99093.97;1739420;81;21023;-66
2022/01/09 04:11:39;;;;;;;22.67;9.58;;;;;;;-2.72;83.58;99090.23;1711690;81;21396;-67
2022/01/09 04:14:06;;;;;;;19.50;9.25;;;;;;;-2.70;83.73;99089.46;1705955;81;20953;-67
2022/01/09 04:16:33;;;;;;;16.07;8.73;;;;;;;-2.69;83.56;99080.81;1742602;81;21036;-67
2022/01/09 04:19:00;;;;;;;23.32;9.83;;;;;;;-2.69;83.68;99082.16;1756393;80;21111;-67
2022/01/09 04:21:26;;;;;;;19.07;8.88;;;;;;;-2.68;83.78;99075.73;1707190;81;21071;-67
2022/01/09 04:23:52;;;;;;;19.35;9.03;;;;;;;-2.65;83.69;99072.53;1739905;81;21067;-68
2022/01/09 04:26:20;;;;;;;21.87;9.48;;;;;;;-2.70;83.56;99073.27;1728222;81;21048;-67
2022/01/09 04:28:46;;;;;;;17.82;9.23;;;;;;;-2.74;83.54;99065.89;1679888;82;21063;-67
2022/01/09 04:31:13;;;;;;;21.82;9.45;;;;;;;-2.75;83.81;99066.44;1725061;82;21068;-67
2022/01/09 04:33:40;;;;;;;27.70;9.20;;;;;;;-2.77;83.90;99059.64;1729304;81;21004;-67
2022/01/09 04:36:07;;;;;;;15.35;8.63;;;;;;;-2.79;84.05;99059.88;1737235;80;21000;-66
2022/01/09 04:38:33;;;;;;;21.00;9.30;;;;;;;-2.77;84.20;99060.98;1759812;80;21050;-67
2022/01/09 04:41:00;;;;;;;20.23;8.98;;;;;;;-2.75;84.31;99058.34;1729339;81;21564;-67
2022/01/09 04:43:28;;;;;;;19.73;10.30;;;;;;;-2.75;84.26;99057.00;1724260;81;20882;-66
2022/01/09 04:45:54;;;;;;;26.45;9.85;;;;;;;-2.71;84.55;99047.86;1729938;81;21099;-67
2022/01/09 04:48:20;;;;;;;19.40;8.43;;;;;;;-2.68;84.51;99044.70;1741283;81;21035;-67
2022/01/09 04:50:47;;;;;;;22.60;8.93;;;;;;;-2.66;84.41;99044.45;1722232;81;20940;-66
2022/01/09 04:53:14;;;;;;;21.65;8.78;;;;;;;-2.66;84.45;99043.91;1713601;81;21520;-64
2022/01/09 04:55:45;;;;;;;23.25;9.25;;;;;;;-2.63;84.46;99041.27;1737666;81;21524;-67
2022/01/09 04:58:12;;;;;;;20.08;9.63;;;;;;;-2.66;84.38;99035.81;1760442;80;21068;-67
2022/01/09 05:00:40;;;;;;;20.25;9.40;;;;;;;-2.63;84.45;99031.82;1732573;81;21441;-66
2022/01/09 05:03:07;;;;;;;16.27;7.65;;;;;;;-2.62;84.38;99028.05;1747333;81;20996;-67
2022/01/09 05:05:33;;;;;;;19.57;8.23;;;;;;;-2.62;84.49;99018.09;1760676;80;21004;-67
2022/01/09 05:08:02;;;;;;;18.23;8.38;;;;;;;-2.61;84.46;99014.86;1747903;81;20979;-66
2022/01/09 05:10:28;;;;;;;21.23;8.85;;;;;;;-2.61;84.48;99010.81;1747415;81;20952;-67
2022/01/09 05:12:55;;;;;;;24.95;9.70;;;;;;;-2.62;84.35;99009.99;1742797;81;21454;-66
2022/01/09 05:15:22;;;;;;;18.25;8.40;;;;;;;-2.63;84.36;99012.94;1701715;81;21067;-66
2022/01/09 05:17:52;;;;;;;19.17;8.85;;;;;;;-2.62;84.48;99019.95;1703894;82;21109;-65
2022/01/09 05:20:17;;;;;;;18.32;9.05;;;;;;;-2.61;84.56;99020.27;1728429;82;21124;-65
2022/01/09 05:22:44;;;;;;;19.23;9.05;;;;;;;-2.64;84.42;99017.50;1735229;81;21080;-65
2022/01/09 05:25:10;;;;;;;24.27;10.23;;;;;;;-2.67;84.48;99013.13;1694575;82;21096;-67
2022/01/09 05:27:37;;;;;;;20.43;9.20;;;;;;;-2.66;84.69;99013.43;1723883;81;20937;-66
2022/01/09 05:30:05;;;;;;;19.77;9.65;;;;;;;-2.62;84.83;99003.25;1737148;81;21116;-66
2022/01/09 05:32:32;;;;;;;22.30;8.85;;;;;;;-2.65;85.51;98999.70;1746104;80;21001;-65
2022/01/09 05:34:58;;;;;;;22.82;9.15;;;;;;;-2.66;85.49;98997.24;1731528;81;21450;-67
2022/01/09 05:37:24;;;;;;;20.45;8.18;;;;;;;-2.68;85.08;99002.89;1762875;80;21052;-67
2022/01/09 05:39:50;;;;;;;23.47;9.80;;;;;;;-2.69;85.01;98989.92;1777062;80;21104;-66
2022/01/09 05:42:17;;;;;;;18.70;8.75;;;;;;;-2.70;85.03;98993.69;1736437;80;21147;-66
2022/01/09 05:44:44;;;;;;;22.45;9.35;;;;;;;-2.68;85.14;98992.09;1711601;82;21064;-67
2022/01/09 05:47:11;;;;;;;17.35;8.78;;;;;;;-2.67;85.00;98993.72;1728333;81;21054;-66
2022/01/09 05:49:37;;;;;;;21.57;8.95;;;;;;;-2.69;85.07;98992.62;1705751;82;20980;-66
2022/01/09 05:52:05;;;;;;;20.65;9.78;;;;;;;-2.71;85.01;98996.09;1728520;81;21111;-67
2022/01/09 05:54:32;;;;;;;21.42;10.23;;;;;;;-2.76;85.04;98989.26;1726001;81;21797;-66
2022/01/09 05:56:58;;;;;;;20.82;9.48;;;;;;;-2.77;85.49;98980.89;1736067;81;21114;-66
2022/01/09 05:59:26;;;;;;;17.90;9.23;;;;;;;-2.73;85.58;98980.67;1743184;81;20936;-66
2022/01/09 06:01:52;;;;;;;16.62;8.88;;;;;;;-2.72;85.48;98970.19;1731880;81;20980;-65
2022/01/09 06:04:19;;;;;;;22.15;10.35;;;;;;;-2.75;85.48;98966.64;1704025;81;21023;-65
2022/01/09 06:06:46;;;;;;;20.97;9.70;;;;;;;-2.74;85.58;98955.29;1709425;80;21865;-65
2022/01/09 06:09:12;;;;;;;22.90;9.50;;;;;;;-2.73;85.70;98949.65;1731106;81;20991;-66
2022/01/09 06:11:39;;;;;;;20.43;10.32;;;;;;;-2.69;85.64;98952.67;1735261;81;20993;-67
2022/01/09 06:14:06;;;;;;;23.90;10.45;;;;;;;-2.70;85.75;98950.53;1710925;82;20956;-67
2022/01/09 06:16:32;;;;;;;18.12;9.90;;;;;;;-2.67;85.79;98955.95;1742978;81;21036;-66
2022/01/09 06:18:58;;;;;;;25.43;10.25;;;;;;;-2.68;85.97;98954.33;1741634;80;21122;-67
2022/01/09 06:21:28;;;;;;;23.80;12.20;;;;;;;-2.67;86.08;98952.43;1737130;81;20989;-67
2022/01/09 06:23:54;;;;;;;19.82;10.30;;;;;;;-2.67;86.18;98949.20;1703571;81;21060;-67
2022/01/09 06:26:21;;;;;;;20.37;10.90;;;;;;;-2.65;86.27;98951.66;1729000;81;20980;-67
2022/01/09 06:28:49;;;;;;;20.92;10.75;;;;;;;-2.61;86.36;98944.16;1748471;81;21016;-66
2022/01/09 06:31:15;;;;;;;23.52;10.70;;;;;;;-2.61;86.03;98940.67;1699717;83;21004;-66
2022/01/09 06:33:43;;;;;;;23.35;11.75;;;;;;;-2.62;86.14;98946.59;1743055;81;20932;-66
2022/01/09 06:36:09;;;;;;;23.62;11.25;;;;;;;-2.59;86.20;98943.91;1712692;81;20971;-67
2022/01/09 06:38:37;;;;;;;25.20;11.73;;;;;;;-2.64;86.00;98948.71;1711226;81;20989;-67
2022/01/09 06:41:04;;;;;;;21.62;10.30;;;;;;;-2.66;86.14;98951.38;1745724;81;21488;-67
2022/01/09 06:43:34;;;;;;;23.50;12.00;;;;;;;-2.64;86.44;98951.93;1740915;81;21101;-66
2022/01/09 06:46:02;;;;;;;24.80;11.68;;;;;;;-2.64;86.56;98949.23;1743937;81;21119;-65
2022/01/09 06:48:29;;;;;;;22.42;10.60;;;;;;;-2.64;86.67;98946.53;1742145;80;20979;-67
2022/01/09 06:50:57;;;;;;;22.80;12.53;;;;;;;-2.63;86.71;98946.84;1742502;81;21128;-66
2022/01/09 06:53:23;;;;;;;27.60;12.10;;;;;;;-2.66;86.70;98945.98;1739915;81;21044;-66
2022/01/09 06:55:50;;;;;;;20.77;11.75;;;;;;;-2.66;87.00;98944.09;1729193;81;22296;-67
2022/01/09 06:58:18;;;;;;;25.70;11.30;;;;;;;-2.63;87.06;98948.19;1725082;81;20912;-68
2022/01/09 07:00:46;;;;;;;22.73;12.40;;;;;;;-2.62;86.96;98947.94;1749385;81;20996;-66
2022/01/09 07:03:12;;;;;;;27.05;11.68;;;;;;;-2.63;87.07;98942.80;1711347;82;21606;-67
2022/01/09 07:05:38;;;;;;;26.90;12.00;;;;;;;-2.60;87.16;98938.25;1719622;81;21025;-67
2022/01/09 07:08:07;;;;;;;18.65;11.78;;;;;;;-2.58;87.16;98938.27;1715910;81;21197;-66
2022/01/09 07:10:33;;;;;;;22.65;11.35;;;;;;;-2.56;87.24;98943.45;1699671;82;21045;-67
2022/01/09 07:13:01;;;;;;;23.80;13.00;;;;;;;-2.52;87.22;98945.09;1705120;82;21021;-65
2022/01/09 07:15:28;;;;;;;24.50;11.90;;;;;;;-2.51;87.12;98943.52;1712366;82;21465;-67
2022/01/09 07:17:54;;;;;;;25.25;12.15;;;;;;;-2.54;86.92;98932.41;1708438;82;20995;-65
2022/01/09 07:20:20;;;;;;;23.38;12.05;;;;;;;-2.56;87.02;98923.21;1687549;84;21178;-68
2022/01/09 07:22:47;;;;;;;27.42;12.58;;;;;;;-2.54;87.12;98915.66;1709032;81;21114;-67
2022/01/09 07:25:14;;;;;;;30.02;14.83;;;;;;;-2.51;87.28;98904.39;1746255;81;21091;-67
2022/01/09 07:27:40;;;;;;;25.20;12.90;;;;;;;-2.49;87.32;98888.75;1725478;81;21054;-65
2022/01/09 07:30:08;;;;;;;31.55;13.60;;;;;;;-2.44;87.37;98892.08;1743131;81;20987;-66
2022/01/09 07:32:36;;;;;;;23.73;12.80;;;;;;;-2.43;87.99;98895.05;1754930;81;21942;-66
2022/01/09 07:35:04;;;;;;;27.73;12.60;;;;;;;-2.46;88.45;98899.05;1710627;81;21043;-68
2022/01/09 07:37:30;;;;;;;31.35;14.40;;;;;;;-2.49;88.51;98893.35;1711237;81;21062;-67
2022/01/09 07:40:00;;;;;;;25.17;12.95;;;;;;;-2.51;88.63;98889.55;1710774;82;20984;-67
2022/01/09 07:42:26;;;;;;;30.52;14.38;;;;;;;-2.52;88.53;98885.20;1749019;81;20899;-67
2022/01/09 07:44:53;;;;;;;29.72;14.43;;;;;;;-2.49;88.65;98884.70;1739763;81;22210;-67
2022/01/09 07:47:20;;;;;;;31.07;15.68;;;;;;;-2.43;88.66;98886.95;1755421;81;21055;-67
2022/01/09 07:49:49;;;;;;;29.02;15.58;;;;;;;-2.41;88.33;98885.34;1750710;81;21047;-68
2022/01/09 07:52:15;;;;;;;29.35;15.50;;;;;;;-2.42;88.23;98892.62;1734391;81;21012;-67
2022/01/09 07:54:42;;;;;;;32.15;16.48;;;;;;;-2.40;88.32;98885.63;1705451;82;20982;-65
2022/01/09 07:57:08;;;;;;;30.50;15.15;;;;;;;-2.37;88.42;98883.24;1715957;81;21129;-68
2022/01/09 07:59:35;;;;;;;31.55;15.48;;;;;;;-2.34;88.44;98888.69;1715331;81;21430;-66
2022/01/09 08:02:01;;;;;;;31.25;15.85;;;;;;;-2.31;88.30;98877.39;1709245;83;21075;-65
2022/01/09 08:04:28;;;;;;;31.77;16.80;;;;;;;-2.28;88.32;98874.19;1701534;82;20968;-68
2022/01/09 08:06:54;;;;;;;34.10;16.57;;;;;;;-2.26;88.25;98876.62;1720655;81;21505;-68
2022/01/09 08:09:21;;;;;;;37.30;17.20;;;;;;;-2.26;88.11;98877.98;1709941;83;21190;-66
2022/01/09 08:11:48;;;;;;;29.52;14.87;;;;;;;-2.27;88.01;98868.27;1733678;81;20931;-68
2022/01/09 08:14:17;;;;;;;32.50;17.10;;;;;;;-2.28;88.12;98867.95;1705364;83;20971;-66
2022/01/09 08:16:44;;;;;;;32.83;18.15;;;;;;;-2.32;88.06;98862.27;1704892;82;21021;-67
2022/01/09 08:19:10;;;;;;;29.27;16.97;;;;;;;-2.33;88.08;98863.31;1688168;83;21589;-68
2022/01/09 08:21:37;;;;;;;33.78;17.48;;;;;;;-2.32;88.18;98867.67;1718549;81;21276;-68
2022/01/09 08:24:04;;;;;;;38.23;17.35;;;;;;;-2.28;88.35;98866.61;1708324;81;20897;-68
2022/01/09 08:26:32;;;;;;;32.25;17.57;;;;;;;-2.24;88.37;98867.23;1704103;82;21092;-68
2022/01/09 08:28:58;;;;;;;34.53;18.12;;;;;;;-2.23;88.24;98866.15;1684453;83;21014;-66
2022/01/09 08:31:24;;;;;;;35.20;18.07;;;;;;;-2.18;88.40;98859.20;1702726;83;21034;-66
2022/01/09 08:33:50;;;;;;;37.33;18.37;;;;;;;-2.12;88.40;98858.17;1718699;82;21791;-66
2022/01/09 08:36:17;;;;;;;35.78;17.07;;;;;;;-2.06;88.47;98856.36;1710060;82;20961;-67
2022/01/09 08:38:43;;;;;;;38.70;18.12;;;;;;;-2.01;88.48;98850.98;1706111;83;20942;-66
2022/01/09 08:41:10;;;;;;;40.40;19.10;;;;;;;-1.98;88.44;98839.70;1735113;82;21455;-66
2022/01/09 08:43:36;;;;;;;35.33;17.75;;;;;;;-1.92;88.43;98842.73;1710903;83;20898;-66
2022/01/09 08:46:03;;;;;;;36.68;17.92;;;;;;;-1.85;88.46;98843.36;1709804;83;21942;-67
2022/01/09 08:48:29;;;;;;;34.70;17.48;;;;;;;-1.78;88.33;98840.98;1705879;83;21025;-67
2022/01/09 08:50:55;;;;;;;35.55;19.48;;;;;;;-1.75;87.98;98841.30;1686732;83;21109;-68
2022/01/09 08:53:22;;;;;;;34.43;18.48;;;;;;;-1.81;88.03;98829.34;1715267;83;20969;-66
2022/01/09 08:55:48;;;;;;;45.45;20.65;;;;;;;-1.82;88.49;98831.22;1713576;83;20994;-67
2022/01/09 08:58:14;;;;;;;34.35;18.35;;;;;;;-1.79;88.65;98821.80;1711801;81;21808;-66
2022/01/09 09:00:42;;;;;;;37.20;18.90;;;;;;;-1.77;88.59;98821.81;1708205;83;20827;-67
2022/01/09 09:03:10;;;;;;;40.73;20.95;;;;;;;-1.72;88.44;98812.94;1701364;83;20991;-67
2022/01/09 09:05:37;;;;;;;41.63;20.10;;;;;;;-1.71;88.44;98807.27;1717122;83;20949;-68
2022/01/09 09:08:04;;;;;;;34.50;19.85;;;;;;;-1.65;88.30;98812.73;1715236;83;20967;-67
2022/01/09 09:10:31;;;;;;;40.25;21.00;;;;;;;-1.66;88.00;98810.58;1682483;83;21290;-68
2022/01/09 09:12:57;;;;;;;44.18;20.52;;;;;;;-1.67;87.82;98806.78;1718752;81;20938;-68
2022/01/09 09:15:24;;;;;;;45.17;21.85;;;;;;;-1.69;87.97;98794.89;1704339;83;21030;-69
2022/01/09 09:17:50;;;;;;;47.08;23.42;;;;;;;-1.63;88.20;98784.92;1706268;82;21178;-66
2022/01/09 09:20:16;;;;;;;45.38;21.10;;;;;;;-1.55;88.36;98784.45;1709715;83;21045;-67
2022/01/09 09:22:43;;;;;;;43.17;20.40;;;;;;;-1.43;88.42;98779.42;1705354;82;21563;-67
2022/01/09 09:25:10;;;;;;;42.65;21.42;;;;;;;-1.37;88.26;98777.84;1716507;83;20974;-67
2022/01/09 09:27:37;;;;;;;47.23;21.65;;;;;;;-1.34;87.98;98772.45;1700565;83;20924;-67
2022/01/09 09:30:05;;;;;;;44.48;22.32;;;;;;;-1.30;87.75;98767.34;1707650;82;20964;-66
2022/01/09 09:32:32;;;;;;;40.73;19.65;;;;;;;-1.28;87.54;98758.44;1686541;83;21510;-68
2022/01/09 09:34:58;;;;;;;42.03;20.88;;;;;;;-1.27;87.42;98753.30;1700563;82;21137;-67
2022/01/09 09:37:27;;;;;;;41.65;21.02;;;;;;;-1.25;87.36;98743.87;1752973;80;20954;-68
2022/01/09 09:39:53;;;;;;;39.75;19.62;;;;;;;-1.23;87.04;98741.69;1743310;80;21061;-68
2022/01/09 09:42:21;;;;;;;42.08;21.15;;;;;;;-1.24;86.95;98745.48;1747104;81;21027;-68
2022/01/09 09:44:48;;;;;;;43.78;20.37;;;;;;;-1.26;86.83;98754.39;1740386;81;20931;-68
2022/01/09 09:47:19;;;;;;;37.45;19.50;;;;;;;-1.29;86.80;98757.61;1747398;81;21766;-68
2022/01/09 09:49:48;;;;;;;34.20;19.12;;;;;;;-1.30;86.97;98745.71;1746651;80;21599;-68
2022/01/09 09:52:18;;;;;;;34.00;18.95;;;;;;;-1.30;86.85;98752.47;1716713;81;21003;-66
2022/01/09 09:54:46;;;;;;;38.15;19.57;;;;;;;-1.35;86.81;98754.61;1707506;82;21008;-67
2022/01/09 09:57:12;;;;;;;46.60;21.20;;;;;;;-1.39;86.75;98758.36;1699929;82;21008;-67
2022/01/09 09:59:39;;;;;;;47.30;22.15;;;;;;;-1.41;86.89;98754.27;1737101;81;21129;-68
2022/01/09 10:02:15;;;;;;;39.30;19.57;;;;;;;-1.42;87.01;98743.20;1745794;81;20936;-68
2022/01/09 10:05:05;;;;;;;40.30;20.57;;;;;;;-1.40;87.04;98742.41;1710108;81;20994;-67
2022/01/09 10:07:32;;;;;;;38.10;20.25;;;;;;;-1.43;86.99;98742.38;1732954;81;21017;-67
2022/01/09 10:10:01;;;;;;;40.92;20.70;;;;;;;-1.47;87.05;98739.38;1736295;81;20961;-67
2022/01/09 10:12:30;;;;;;;43.23;21.95;;;;;;;-1.55;87.09;98735.80;1738402;80;21115;-66
2022/01/09 10:14:59;;;;;;;40.73;20.52;;;;;;;-1.52;87.47;98730.43;1729571;81;20932;-67
2022/01/09 10:17:27;;;;;;;39.95;19.42;;;;;;;-1.49;87.63;98725.33;1703207;81;21229;-66
2022/01/09 10:20:13;;;;;;;44.03;21.00;;;;;;;-1.44;87.56;98729.95;1739980;80;21135;-67
2022/01/09 10:22:46;;;;;;;40.58;19.67;;;;;;;-1.46;87.42;98721.27;1752204;81;20996;-67
2022/01/09 10:25:32;;;;;;;44.77;20.62;;;;;;;-1.44;87.45;98725.89;1744665;81;21129;-65
2022/01/09 10:28:16;;;;;;;38.25;21.07;;;;;;;-1.40;87.58;98720.78;1731783;81;21104;-67
2022/01/09 10:30:46;;;;;;;40.38;20.88;;;;;;;-1.40;87.29;98716.73;1718431;82;21175;-68
2022/01/09 10:33:19;;;;;;;40.80;18.95;;;;;;;-1.39;87.41;98707.53;1746718;81;21096;-68
2022/01/09 10:35:46;;;;;;;38.35;20.08;;;;;;;-1.37;87.36;98704.04;1712977;81;21008;-66
2022/01/09 10:38:24;;;;;;;37.38;20.82;;;;;;;-1.37;87.42;98709.45;1733142;81;21139;-67
2022/01/09 10:40:57;;;;;;;40.28;20.62;;;;;;;-1.37;87.36;98691.88;1731160;81;21126;-68
2022/01/09 10:43:33;;;;;;;35.70;19.17;;;;;;;-1.33;87.22;98692.17;1708944;81;21054;-68
2022/01/09 10:46:00;;;;;;;38.02;19.55;;;;;;;-1.33;87.15;98690.81;1744851;80;20960;-68
2022/01/09 10:48:41;;;;;;;32.48;18.92;;;;;;;-1.31;87.03;98704.34;1736883;81;21596;-68
2022/01/09 10:51:10;;;;;;;39.30;19.73;;;;;;;-1.29;87.01;98695.96;1739550;81;21413;-68
2022/01/09 10:53:40;;;;;;;40.78;20.72;;;;;;;-1.28;86.97;98687.59;1750362;81;21004;-68
2022/01/09 10:56:15;;;;;;;28.77;16.95;;;;;;;-1.23;87.06;98694.94;1730812;81;21092;-67
2022/01/09 10:58:48;;;;;;;37.78;20.27;;;;;;;-1.23;86.90;98684.91;1734810;81;20971;-67
2022/01/09 11:01:23;;;;;;;36.65;19.07;;;;;;;-1.28;86.72;98676.77;1735107;81;20992;-68
2022/01/09 11:04:06;;;;;;;40.20;19.37;;;;;;;-1.29;86.84;98672.45;1733075;81;21245;-66
2022/01/09 11:06:35;;;;;;;39.10;19.85;;;;;;;-1.36;87.66;98680.80;1738437;81;21096;-67
2022/01/09 11:09:04;;;;;;;38.92;19.75;;;;;;;-1.40;87.89;98673.48;1734809;81;20988;-67
2022/01/09 11:11:38;;;;;;;41.75;21.40;;;;;;;-1.41;87.94;98669.13;1742686;81;21189;-68
2022/01/09 11:14:07;;;;;;;42.62;19.20;;;;;;;-1.35;87.80;98666.75;1737318;81;20935;-67
2022/01/09 11:16:34;;;;;;;36.42;20.02;;;;;;;-1.32;87.79;98666.23;1747452;81;21139;-67
2022/01/09 11:19:06;;;;;;;45.52;21.42;;;;;;;-1.27;87.75;98664.08;1743222;81;21679;-67
2022/01/09 11:21:35;;;;;;;36.93;19.60;;;;;;;-1.24;87.81;98660.31;1742958;81;21218;-67
2022/01/09 11:24:24;;;;;;;43.17;20.37;;;;;;;-1.17;87.84;98655.20;1739685;81;21060;-67
2022/01/09 11:27:15;;;;;;;39.00;19.95;;;;;;;-1.13;87.63;98652.26;1739427;81;21020;-66